EDDS/STR METAR and TAF weather

Enter ICAO airport designator
Station Type Date Time Source
EDDS METAR 2018/01/24 07:20 UTC NOAA

EDDS 240720Z 16003KT 9999 FEW046 SCT280 05/03 Q1024 NOSIG


Station Type Date Time Source
EDDS Decoded METAR 2018/01/24 07:20 UTC NOAA

Stuttgart-Echterdingen, Germany (EDDS) 48-41N 009-13E 391M
Jan 24, 2018 - 02:20 AM EST / 2018.01.24 0720 UTC
Wind: from the SSE (160 degrees) at 3 MPH (3 KT):0
Visibility: greater than 7 mile(s):0
Sky conditions: partly cloudy
Temperature: 41 F (5 C)
Dew Point: 37 F (3 C)
Relative Humidity: 86%
Pressure (altimeter): 30.24 in. Hg (1024 hPa)
ob: EDDS 240720Z 16003KT 9999 FEW046 SCT280 05/03 Q1024 NOSIG
cycle: 7

Station Type Date Time Source
EDDS TAF 2018/01/24 06:27 UTC NOAA

TAF EDDS 240500Z 2406/2506 20010KT 9999 BKN030
TEMPO 2410/2414 23015G25KT


Example: see airport list